createdAt,value
2023-04-26T00:05:05.333Z,8.89
2023-04-26T00:10:11.308Z,8.65
2023-04-26T00:15:17.678Z,8.82
2023-04-26T00:20:22.327Z,8.97
2023-04-26T00:25:26.506Z,9.02
2023-04-26T00:30:32.527Z,8.75
2023-04-26T00:35:36.526Z,8.76
2023-04-26T00:40:40.537Z,8.86
2023-04-26T00:45:46.857Z,8.67
2023-04-26T00:50:52.038Z,8.48
2023-04-26T00:55:56.699Z,8.40
2023-04-26T01:01:02.859Z,8.76
2023-04-26T01:06:07.328Z,8.52
2023-04-26T01:11:15.083Z,8.57
2023-04-26T01:16:22.093Z,8.74
2023-04-26T01:21:26.421Z,8.33
2023-04-26T01:26:34.189Z,8.11
2023-04-26T01:31:38.435Z,8.38
2023-04-26T01:36:42.647Z,8.07
2023-04-26T01:41:50.412Z,8.24
2023-04-26T01:46:55.518Z,8.22
2023-04-26T01:52:04.155Z,7.95
2023-04-26T01:57:10.532Z,7.93
2023-04-26T02:02:14.659Z,8.13
2023-04-26T02:07:19.705Z,8.12
2023-04-26T02:12:26.379Z,7.82
2023-04-26T02:17:30.915Z,7.98
2023-04-26T02:22:36.052Z,8.00
2023-04-26T02:27:42.234Z,8.05
2023-04-26T02:32:46.436Z,8.06
2023-04-26T02:37:52.814Z,8.07
2023-04-26T02:42:58.409Z,8.14
2023-04-26T02:48:02.857Z,8.24
2023-04-26T02:53:07.260Z,8.06
2023-04-26T02:58:12.754Z,7.75
2023-04-26T03:03:17.849Z,7.74
2023-04-26T03:08:23.934Z,7.83
2023-04-26T03:13:31.433Z,7.87
2023-04-26T03:18:36.264Z,8.00
2023-04-26T03:23:40.898Z,8.04
2023-04-26T03:28:46.883Z,8.10
2023-04-26T03:33:51.825Z,8.12
2023-04-26T03:38:56.395Z,8.42
2023-04-26T03:44:02.939Z,8.46
2023-04-26T03:49:07.224Z,7.98
2023-04-26T03:54:11.434Z,7.73
2023-04-26T03:59:19.944Z,8.09
2023-04-26T04:04:25.536Z,8.42
2023-04-26T04:09:31.102Z,8.38
2023-04-26T04:14:36.842Z,8.27
2023-04-26T04:19:41.352Z,8.23
2023-04-26T04:24:47.651Z,8.55
2023-04-26T04:29:53.957Z,8.64
2023-04-26T04:34:59.034Z,8.73
2023-04-26T04:40:04.630Z,8.94
2023-04-26T04:45:16.340Z,9.02
2023-04-26T04:50:23.491Z,9.23
2023-04-26T04:55:28.319Z,9.48
2023-04-26T05:00:35.344Z,9.23
2023-04-26T05:05:47.707Z,9.24
2023-04-26T05:10:53.557Z,9.21
2023-04-26T05:16:01.939Z,9.01
2023-04-26T05:21:07.592Z,9.09
2023-04-26T05:26:16.577Z,9.19
2023-04-26T05:31:39.161Z,9.41
2023-04-26T05:37:10.651Z,9.24
2023-04-26T05:42:17.511Z,9.79
2023-04-26T05:47:23.846Z,9.84
2023-04-26T05:52:30.364Z,9.86
2023-04-26T05:57:35.662Z,10.06
2023-04-26T06:02:47.093Z,10.25
2023-04-26T06:07:56.162Z,10.23
2023-04-26T06:13:01.134Z,10.19
2023-04-26T06:18:10.479Z,10.53
2023-04-26T06:23:15.164Z,10.55
2023-04-26T06:28:20.012Z,10.81
2023-04-26T06:33:25.837Z,10.51
2023-04-26T06:38:29.955Z,10.42
2023-04-26T06:43:35.165Z,10.65
2023-04-26T06:49:00.436Z,11.21
2023-04-26T06:54:04.899Z,11.50
2023-04-26T06:59:09.655Z,11.75
2023-04-26T07:04:17.877Z,11.70
2023-04-26T07:09:22.323Z,11.77
2023-04-26T07:14:26.999Z,11.98
2023-04-26T07:19:32.498Z,12.03
2023-04-26T07:24:36.687Z,12.40
2023-04-26T07:29:40.850Z,12.52
2023-04-26T07:34:46.445Z,12.36
2023-04-26T07:39:50.880Z,12.81
2023-04-26T07:44:54.939Z,12.76
2023-04-26T07:50:00.580Z,13.24
2023-04-26T07:55:05.391Z,13.17
2023-04-26T08:00:12.510Z,13.33
2023-04-26T08:05:19.066Z,13.69
2023-04-26T08:10:23.930Z,13.46
2023-04-26T08:15:28.596Z,13.36
2023-04-26T08:20:34.515Z,13.00
2023-04-26T08:25:38.687Z,13.13
2023-04-26T08:30:43.293Z,13.83
2023-04-26T08:35:48.969Z,14.12
2023-04-26T08:40:53.418Z,14.19
2023-04-26T08:46:00.067Z,15.54
2023-04-26T08:51:08.640Z,15.57
2023-04-26T08:56:15.024Z,14.92
2023-04-26T09:01:22.025Z,14.84
2023-04-26T09:06:29.235Z,15.06
2023-04-26T09:11:33.318Z,15.92
2023-04-26T09:16:38.097Z,16.16
2023-04-26T09:21:47.553Z,15.69
2023-04-26T09:27:03.263Z,16.42
2023-04-26T09:32:08.041Z,16.49
2023-04-26T09:37:14.212Z,16.82
2023-04-26T09:42:20.036Z,16.49
2023-04-26T09:47:24.291Z,16.32
2023-04-26T09:52:30.487Z,15.94
2023-04-26T09:57:34.586Z,15.54
2023-04-26T10:02:39.141Z,15.62
2023-04-26T10:07:45.009Z,14.69
2023-04-26T10:12:49.065Z,14.77
2023-04-26T10:17:53.173Z,14.64
2023-04-26T10:23:01.884Z,14.68
2023-04-26T10:28:07.122Z,14.54
2023-04-26T10:33:16.567Z,14.43
2023-04-26T10:38:22.183Z,15.17
2023-04-26T10:43:29.610Z,15.88
2023-04-26T10:48:34.367Z,15.77
2023-04-26T10:54:05.293Z,15.21
2023-04-26T10:59:33.275Z,15.30
2023-04-26T11:04:52.346Z,15.05
2023-04-26T11:09:58.354Z,14.97
2023-04-26T11:15:05.216Z,14.85
2023-04-26T11:20:11.835Z,14.56
2023-04-26T11:25:17.578Z,14.38
2023-04-26T11:30:24.286Z,14.72
2023-04-26T11:35:31.032Z,14.65
2023-04-26T11:40:38.242Z,14.77
2023-04-26T11:45:42.484Z,14.95
2023-04-26T11:50:47.488Z,15.20
2023-04-26T11:55:53.414Z,15.44
2023-04-26T12:00:59.124Z,15.56
2023-04-26T12:06:03.310Z,16.05
2023-04-26T12:11:09.283Z,16.45
2023-04-26T12:16:25.752Z,16.51
2023-04-26T12:21:31.136Z,16.43
2023-04-26T12:26:45.784Z,15.97
2023-04-26T12:31:50.050Z,16.27
2023-04-26T12:36:54.993Z,16.50
2023-04-26T12:42:00.652Z,16.53
2023-04-26T12:47:04.845Z,16.83
2023-04-26T12:52:08.930Z,16.91
2023-04-26T12:57:17.341Z,17.11
2023-04-26T13:02:22.567Z,17.31
2023-04-26T13:07:28.043Z,16.75
2023-04-26T13:12:35.596Z,16.77
2023-04-26T13:17:43.292Z,16.23
2023-04-26T13:22:47.911Z,16.35
2023-04-26T13:27:54.890Z,16.94
2023-04-26T13:33:00.568Z,16.97
2023-04-26T13:38:05.211Z,16.35
2023-04-26T13:43:12.256Z,15.60
2023-04-26T13:48:16.878Z,15.23
2023-04-26T13:53:24.069Z,15.14
2023-04-26T13:58:29.961Z,15.04
2023-04-26T14:03:35.294Z,14.70
2023-04-26T14:08:39.691Z,14.35
2023-04-26T14:13:45.352Z,14.33
2023-04-26T14:18:49.654Z,14.32
2023-04-26T14:23:55.803Z,14.54
2023-04-26T14:29:01.715Z,14.70
2023-04-26T14:34:05.954Z,14.46
2023-04-26T14:39:10.250Z,13.96
2023-04-26T14:44:15.803Z,14.18
2023-04-26T14:49:20.816Z,14.09
2023-04-26T14:54:27.290Z,14.13
2023-04-26T14:59:33.022Z,13.87
2023-04-26T15:04:38.263Z,14.42
2023-04-26T15:09:42.776Z,14.54
2023-04-26T15:14:50.950Z,14.54
2023-04-26T15:19:54.938Z,14.57
2023-04-26T15:24:58.983Z,14.03
2023-04-26T15:30:04.905Z,13.69
2023-04-26T15:35:15.589Z,13.65
2023-04-26T15:40:19.866Z,13.35
2023-04-26T15:45:26.421Z,13.16
2023-04-26T15:50:31.108Z,12.76
2023-04-26T15:55:35.610Z,12.60
2023-04-26T16:00:41.109Z,12.51
2023-04-26T16:05:48.596Z,12.43
2023-04-26T16:10:52.948Z,12.40
2023-04-26T16:15:58.386Z,12.40
2023-04-26T16:21:07.130Z,12.32
2023-04-26T16:26:11.460Z,12.19
2023-04-26T16:31:19.474Z,12.10
2023-04-26T16:36:25.257Z,11.91
2023-04-26T16:41:29.811Z,11.74
2023-04-26T16:46:37.710Z,11.80
2023-04-26T16:51:44.377Z,11.76
2023-04-26T16:56:51.764Z,11.54
2023-04-26T17:01:57.382Z,11.38
2023-04-26T17:07:02.313Z,11.18
2023-04-26T17:12:07.523Z,10.91
2023-04-26T17:17:14.132Z,10.74
2023-04-26T17:22:18.297Z,10.75
2023-04-26T17:27:26.017Z,10.74
2023-04-26T17:32:31.553Z,10.68
2023-04-26T17:37:36.354Z,10.66
2023-04-26T17:42:40.818Z,10.51
2023-04-26T17:47:46.942Z,10.55
2023-04-26T17:52:51.114Z,10.41
2023-04-26T17:57:55.386Z,10.32
2023-04-26T18:03:03.236Z,10.36
2023-04-26T18:08:07.535Z,10.40
2023-04-26T18:13:12.738Z,10.25
2023-04-26T18:18:18.325Z,10.37
2023-04-26T18:23:22.572Z,10.27
2023-04-26T18:28:27.357Z,10.25
2023-04-26T18:33:33.570Z,10.00
2023-04-26T18:38:37.845Z,10.04
2023-04-26T18:43:42.808Z,9.86
2023-04-26T18:48:48.765Z,9.51
2023-04-26T18:53:53.382Z,9.30
2023-04-26T18:58:58.972Z,9.15
2023-04-26T19:04:05.036Z,8.45
2023-04-26T19:09:11.837Z,8.36
2023-04-26T19:14:15.994Z,8.71
2023-04-26T19:19:24.175Z,9.07
2023-04-26T19:24:29.350Z,9.10
2023-04-26T19:29:33.631Z,8.96
2023-04-26T19:34:40.834Z,9.34
2023-04-26T19:39:44.916Z,9.26
2023-04-26T19:44:49.762Z,8.93
2023-04-26T19:49:57.344Z,8.78
2023-04-26T19:55:01.867Z,8.93
2023-04-26T20:00:08.137Z,8.89
2023-04-26T20:05:14.007Z,9.06
2023-04-26T20:10:18.466Z,8.97
2023-04-26T20:15:23.705Z,9.03
2023-04-26T20:20:29.329Z,9.09
2023-04-26T20:25:33.481Z,8.77
2023-04-26T20:30:37.840Z,8.60
2023-04-26T20:35:43.572Z,8.84
2023-04-26T20:40:48.968Z,8.71
2023-04-26T20:45:53.148Z,8.81
2023-04-26T20:50:59.301Z,8.68
2023-04-26T20:56:05.026Z,8.59
2023-04-26T21:01:09.943Z,8.64
2023-04-26T21:06:15.426Z,8.49
2023-04-26T21:11:19.711Z,8.49
2023-04-26T21:16:24.664Z,8.54
2023-04-26T21:21:33.974Z,8.54
2023-04-26T21:26:38.214Z,8.41
2023-04-26T21:31:42.775Z,8.51
2023-04-26T21:36:48.660Z,8.59
2023-04-26T21:41:53.771Z,8.40
2023-04-26T21:46:58.033Z,8.62
2023-04-26T21:52:04.017Z,8.41
2023-04-26T21:57:09.484Z,8.44
2023-04-26T22:02:14.019Z,8.35
2023-04-26T22:07:19.743Z,8.41
2023-04-26T22:12:24.605Z,8.36
2023-04-26T22:17:28.881Z,8.32
2023-04-26T22:22:35.601Z,8.37
2023-04-26T22:27:39.732Z,8.46
2023-04-26T22:32:43.961Z,8.50
2023-04-26T22:37:49.519Z,8.48
2023-04-26T22:42:54.316Z,8.47
2023-04-26T22:47:58.646Z,8.48
2023-04-26T22:53:04.331Z,8.29
2023-04-26T22:58:08.618Z,8.37
2023-04-26T23:03:13.240Z,8.15
2023-04-26T23:08:18.833Z,8.09
2023-04-26T23:13:22.993Z,8.23
2023-04-26T23:18:30.373Z,8.23
2023-04-26T23:23:35.842Z,8.09
2023-04-26T23:28:40.171Z,7.97
2023-04-26T23:33:44.312Z,8.00
2023-04-26T23:38:49.890Z,8.05
2023-04-26T23:43:54.016Z,7.98
2023-04-26T23:48:58.330Z,7.98
2023-04-26T23:54:04.354Z,7.88
2023-04-26T23:59:08.411Z,7.78
